sensor_id;sensor_type;location;lat;lon;timestamp;temperature;humidity
14236;DHT22;7202;50.718;7.072;2023-07-30T00:00:28;16.70;99.90
14236;DHT22;7202;50.718;7.072;2023-07-30T00:02:56;16.70;99.90
14236;DHT22;7202;50.718;7.072;2023-07-30T00:05:25;16.70;99.90
14236;DHT22;7202;50.718;7.072;2023-07-30T00:07:54;16.60;99.90
14236;DHT22;7202;50.718;7.072;2023-07-30T00:10:22;16.60;99.90
14236;DHT22;7202;50.718;7.072;2023-07-30T00:12:51;16.60;99.90
14236;DHT22;7202;50.718;7.072;2023-07-30T00:15:20;16.60;99.90
14236;DHT22;7202;50.718;7.072;2023-07-30T00:17:50;16.60;99.90
14236;DHT22;7202;50.718;7.072;2023-07-30T00:20:18;16.50;99.90
14236;DHT22;7202;50.718;7.072;2023-07-30T00:22:47;16.50;99.90
14236;DHT22;7202;50.718;7.072;2023-07-30T00:25:15;16.50;99.90
14236;DHT22;7202;50.718;7.072;2023-07-30T00:27:44;16.50;99.90
14236;DHT22;7202;50.718;7.072;2023-07-30T00:30:12;16.50;99.90
14236;DHT22;7202;50.718;7.072;2023-07-30T00:32:41;16.50;99.90
14236;DHT22;7202;50.718;7.072;2023-07-30T00:35:13;16.40;99.90
14236;DHT22;7202;50.718;7.072;2023-07-30T00:37:42;16.40;99.90
14236;DHT22;7202;50.718;7.072;2023-07-30T00:40:11;16.40;99.90
14236;DHT22;7202;50.718;7.072;2023-07-30T00:42:40;16.40;99.90
14236;DHT22;7202;50.718;7.072;2023-07-30T00:45:10;16.30;99.90
14236;DHT22;7202;50.718;7.072;2023-07-30T00:47:40;16.30;99.90
14236;DHT22;7202;50.718;7.072;2023-07-30T00:50:10;16.30;99.90
14236;DHT22;7202;50.718;7.072;2023-07-30T00:52:42;16.30;99.90
14236;DHT22;7202;50.718;7.072;2023-07-30T00:55:11;16.30;99.90
14236;DHT22;7202;50.718;7.072;2023-07-30T00:57:41;16.20;99.90
14236;DHT22;7202;50.718;7.072;2023-07-30T01:00:11;16.20;99.90
14236;DHT22;7202;50.718;7.072;2023-07-30T01:02:40;16.20;99.90
14236;DHT22;7202;50.718;7.072;2023-07-30T01:05:10;16.20;99.90
14236;DHT22;7202;50.718;7.072;2023-07-30T01:07:38;16.20;99.90
14236;DHT22;7202;50.718;7.072;2023-07-30T01:10:09;16.10;99.90
14236;DHT22;7202;50.718;7.072;2023-07-30T01:12:40;16.10;99.90
14236;DHT22;7202;50.718;7.072;2023-07-30T01:15:10;16.10;99.90
14236;DHT22;7202;50.718;7.072;2023-07-30T01:17:39;16.10;99.90
14236;DHT22;7202;50.718;7.072;2023-07-30T01:20:13;16.10;99.90
14236;DHT22;7202;50.718;7.072;2023-07-30T01:22:48;16.10;99.90
14236;DHT22;7202;50.718;7.072;2023-07-30T01:25:17;16.10;99.90
14236;DHT22;7202;50.718;7.072;2023-07-30T01:27:51;16.00;99.90
14236;DHT22;7202;50.718;7.072;2023-07-30T01:30:24;16.00;99.90
14236;DHT22;7202;50.718;7.072;2023-07-30T01:32:54;16.00;99.90
14236;DHT22;7202;50.718;7.072;2023-07-30T01:35:27;16.00;99.90
14236;DHT22;7202;50.718;7.072;2023-07-30T01:37:58;16.00;99.90
14236;DHT22;7202;50.718;7.072;2023-07-30T01:40:29;15.90;99.90
14236;DHT22;7202;50.718;7.072;2023-07-30T01:42:58;15.90;99.90
14236;DHT22;7202;50.718;7.072;2023-07-30T01:45:27;16.00;99.90
14236;DHT22;7202;50.718;7.072;2023-07-30T01:47:55;15.90;99.90
14236;DHT22;7202;50.718;7.072;2023-07-30T01:50:24;15.90;99.90
14236;DHT22;7202;50.718;7.072;2023-07-30T01:52:53;15.90;99.90
14236;DHT22;7202;50.718;7.072;2023-07-30T01:55:23;16.00;99.90
14236;DHT22;7202;50.718;7.072;2023-07-30T01:57:51;15.90;99.90
14236;DHT22;7202;50.718;7.072;2023-07-30T02:00:20;16.00;99.90
14236;DHT22;7202;50.718;7.072;2023-07-30T02:02:49;16.00;99.90
14236;DHT22;7202;50.718;7.072;2023-07-30T02:05:17;16.00;99.90
14236;DHT22;7202;50.718;7.072;2023-07-30T02:07:46;16.00;99.90
14236;DHT22;7202;50.718;7.072;2023-07-30T02:10:15;16.00;99.90
14236;DHT22;7202;50.718;7.072;2023-07-30T02:12:45;16.00;99.90
14236;DHT22;7202;50.718;7.072;2023-07-30T02:15:13;16.00;99.90
14236;DHT22;7202;50.718;7.072;2023-07-30T02:17:42;16.00;99.90
14236;DHT22;7202;50.718;7.072;2023-07-30T02:20:11;16.00;99.90
14236;DHT22;7202;50.718;7.072;2023-07-30T02:22:39;16.10;99.90
14236;DHT22;7202;50.718;7.072;2023-07-30T02:25:08;16.10;99.90
14236;DHT22;7202;50.718;7.072;2023-07-30T02:27:37;16.10;99.90
14236;DHT22;7202;50.718;7.072;2023-07-30T02:30:07;16.10;99.90
14236;DHT22;7202;50.718;7.072;2023-07-30T02:32:36;16.10;99.90
14236;DHT22;7202;50.718;7.072;2023-07-30T02:35:05;16.10;99.90
14236;DHT22;7202;50.718;7.072;2023-07-30T02:37:34;16.10;99.90
14236;DHT22;7202;50.718;7.072;2023-07-30T02:40:04;16.10;99.90
14236;DHT22;7202;50.718;7.072;2023-07-30T02:42:32;16.10;99.90
14236;DHT22;7202;50.718;7.072;2023-07-30T02:45:01;16.10;99.90
14236;DHT22;7202;50.718;7.072;2023-07-30T02:47:31;16.10;99.90
14236;DHT22;7202;50.718;7.072;2023-07-30T02:50:00;16.10;99.90
14236;DHT22;7202;50.718;7.072;2023-07-30T02:52:28;16.10;99.90
14236;DHT22;7202;50.718;7.072;2023-07-30T02:54:57;16.10;99.90
14236;DHT22;7202;50.718;7.072;2023-07-30T02:57:25;16.10;99.90
14236;DHT22;7202;50.718;7.072;2023-07-30T02:59:54;16.10;99.90
14236;DHT22;7202;50.718;7.072;2023-07-30T03:02:22;16.10;99.90
14236;DHT22;7202;50.718;7.072;2023-07-30T03:04:53;16.10;99.90
14236;DHT22;7202;50.718;7.072;2023-07-30T03:07:24;16.10;99.90
14236;DHT22;7202;50.718;7.072;2023-07-30T03:09:53;16.10;99.90
14236;DHT22;7202;50.718;7.072;2023-07-30T03:12:21;16.10;99.90
14236;DHT22;7202;50.718;7.072;2023-07-30T03:14:50;16.10;99.90
14236;DHT22;7202;50.718;7.072;2023-07-30T03:17:19;16.10;99.90
14236;DHT22;7202;50.718;7.072;2023-07-30T03:19:47;16.10;99.90
14236;DHT22;7202;50.718;7.072;2023-07-30T03:22:17;16.10;99.90
14236;DHT22;7202;50.718;7.072;2023-07-30T03:24:46;16.10;99.90
14236;DHT22;7202;50.718;7.072;2023-07-30T03:27:15;16.10;99.90
14236;DHT22;7202;50.718;7.072;2023-07-30T03:29:44;16.10;99.90
14236;DHT22;7202;50.718;7.072;2023-07-30T03:32:12;16.10;99.90
14236;DHT22;7202;50.718;7.072;2023-07-30T03:34:41;16.10;99.90
14236;DHT22;7202;50.718;7.072;2023-07-30T03:37:09;16.10;99.90
14236;DHT22;7202;50.718;7.072;2023-07-30T03:39:39;16.10;99.90
14236;DHT22;7202;50.718;7.072;2023-07-30T03:42:08;16.10;99.90
14236;DHT22;7202;50.718;7.072;2023-07-30T03:44:37;16.10;99.90
14236;DHT22;7202;50.718;7.072;2023-07-30T03:47:05;16.10;99.90
14236;DHT22;7202;50.718;7.072;2023-07-30T03:49:34;16.10;99.90
14236;DHT22;7202;50.718;7.072;2023-07-30T03:52:03;16.10;99.90
14236;DHT22;7202;50.718;7.072;2023-07-30T03:54:32;16.10;99.90
14236;DHT22;7202;50.718;7.072;2023-07-30T03:57:02;16.10;99.90
14236;DHT22;7202;50.718;7.072;2023-07-30T03:59:30;16.10;99.90
14236;DHT22;7202;50.718;7.072;2023-07-30T04:01:59;16.10;99.90
14236;DHT22;7202;50.718;7.072;2023-07-30T04:04:28;16.10;99.90
14236;DHT22;7202;50.718;7.072;2023-07-30T04:06:59;16.10;99.90
14236;DHT22;7202;50.718;7.072;2023-07-30T04:09:28;16.10;99.90
14236;DHT22;7202;50.718;7.072;2023-07-30T04:11:59;15.50;99.90
14236;DHT22;7202;50.718;7.072;2023-07-30T04:14:29;16.10;99.90
14236;DHT22;7202;50.718;7.072;2023-07-30T04:16:57;16.10;99.90
14236;DHT22;7202;50.718;7.072;2023-07-30T04:19:26;16.00;99.90
14236;DHT22;7202;50.718;7.072;2023-07-30T04:21:55;16.10;99.90
14236;DHT22;7202;50.718;7.072;2023-07-30T04:24:24;16.10;99.90
14236;DHT22;7202;50.718;7.072;2023-07-30T04:26:54;16.00;99.90
14236;DHT22;7202;50.718;7.072;2023-07-30T04:29:22;16.10;99.90
14236;DHT22;7202;50.718;7.072;2023-07-30T04:31:53;16.10;99.90
14236;DHT22;7202;50.718;7.072;2023-07-30T04:34:22;16.10;99.90
14236;DHT22;7202;50.718;7.072;2023-07-30T04:36:50;16.20;99.90
14236;DHT22;7202;50.718;7.072;2023-07-30T04:39:20;16.20;99.90
14236;DHT22;7202;50.718;7.072;2023-07-30T04:41:51;16.20;99.90
14236;DHT22;7202;50.718;7.072;2023-07-30T04:44:19;16.30;99.90
14236;DHT22;7202;50.718;7.072;2023-07-30T04:46:48;16.40;99.90
14236;DHT22;7202;50.718;7.072;2023-07-30T04:49:18;16.40;99.90
14236;DHT22;7202;50.718;7.072;2023-07-30T04:51:47;16.40;99.90
14236;DHT22;7202;50.718;7.072;2023-07-30T04:54:17;16.30;99.90
14236;DHT22;7202;50.718;7.072;2023-07-30T04:56:45;16.30;99.90
14236;DHT22;7202;50.718;7.072;2023-07-30T04:59:14;16.30;99.90
14236;DHT22;7202;50.718;7.072;2023-07-30T05:01:43;16.20;99.90
14236;DHT22;7202;50.718;7.072;2023-07-30T05:04:11;16.20;99.90
14236;DHT22;7202;50.718;7.072;2023-07-30T05:06:41;16.20;99.90
14236;DHT22;7202;50.718;7.072;2023-07-30T05:09:10;16.20;99.90
14236;DHT22;7202;50.718;7.072;2023-07-30T05:11:39;16.20;99.90
14236;DHT22;7202;50.718;7.072;2023-07-30T05:14:07;16.10;99.90
14236;DHT22;7202;50.718;7.072;2023-07-30T05:16:45;16.10;99.90
14236;DHT22;7202;50.718;7.072;2023-07-30T05:19:14;16.20;99.90
14236;DHT22;7202;50.718;7.072;2023-07-30T05:21:44;16.10;99.90
14236;DHT22;7202;50.718;7.072;2023-07-30T05:24:13;16.20;99.90
14236;DHT22;7202;50.718;7.072;2023-07-30T05:26:41;16.20;99.90
14236;DHT22;7202;50.718;7.072;2023-07-30T05:29:10;16.20;99.90
14236;DHT22;7202;50.718;7.072;2023-07-30T05:31:38;16.20;99.90
14236;DHT22;7202;50.718;7.072;2023-07-30T05:34:07;16.20;99.90
14236;DHT22;7202;50.718;7.072;2023-07-30T05:36:36;16.20;99.90
14236;DHT22;7202;50.718;7.072;2023-07-30T05:39:06;16.30;99.90
14236;DHT22;7202;50.718;7.072;2023-07-30T05:41:34;16.30;99.90
14236;DHT22;7202;50.718;7.072;2023-07-30T05:44:04;16.30;99.90
14236;DHT22;7202;50.718;7.072;2023-07-30T05:46:32;16.30;99.90
14236;DHT22;7202;50.718;7.072;2023-07-30T05:49:01;16.30;99.90
14236;DHT22;7202;50.718;7.072;2023-07-30T05:51:30;16.30;99.90
14236;DHT22;7202;50.718;7.072;2023-07-30T05:53:58;16.30;99.90
14236;DHT22;7202;50.718;7.072;2023-07-30T05:56:28;16.40;99.90
14236;DHT22;7202;50.718;7.072;2023-07-30T05:58:57;16.40;99.90
14236;DHT22;7202;50.718;7.072;2023-07-30T06:01:25;16.40;99.90
14236;DHT22;7202;50.718;7.072;2023-07-30T06:03:54;16.50;99.90
14236;DHT22;7202;50.718;7.072;2023-07-30T06:06:23;16.50;99.90
14236;DHT22;7202;50.718;7.072;2023-07-30T06:08:54;16.60;99.90
14236;DHT22;7202;50.718;7.072;2023-07-30T06:11:23;16.60;99.90
14236;DHT22;7202;50.718;7.072;2023-07-30T06:13:53;16.60;99.90
14236;DHT22;7202;50.718;7.072;2023-07-30T06:16:22;16.60;99.90
14236;DHT22;7202;50.718;7.072;2023-07-30T06:18:50;16.50;99.90
14236;DHT22;7202;50.718;7.072;2023-07-30T06:21:19;16.60;99.90
14236;DHT22;7202;50.718;7.072;2023-07-30T06:23:48;16.50;99.90
14236;DHT22;7202;50.718;7.072;2023-07-30T06:26:16;16.50;99.90
14236;DHT22;7202;50.718;7.072;2023-07-30T06:28:45;16.50;99.90
14236;DHT22;7202;50.718;7.072;2023-07-30T06:31:15;16.50;99.90
14236;DHT22;7202;50.718;7.072;2023-07-30T06:33:44;16.50;99.90
14236;DHT22;7202;50.718;7.072;2023-07-30T06:36:12;16.50;99.90
14236;DHT22;7202;50.718;7.072;2023-07-30T06:38:41;16.50;99.90
14236;DHT22;7202;50.718;7.072;2023-07-30T06:41:10;16.50;99.90
14236;DHT22;7202;50.718;7.072;2023-07-30T06:43:39;16.50;99.90
14236;DHT22;7202;50.718;7.072;2023-07-30T06:46:08;16.50;99.90
14236;DHT22;7202;50.718;7.072;2023-07-30T06:48:38;16.50;99.90
14236;DHT22;7202;50.718;7.072;2023-07-30T06:51:07;16.50;99.90
14236;DHT22;7202;50.718;7.072;2023-07-30T06:53:35;16.60;99.90
14236;DHT22;7202;50.718;7.072;2023-07-30T06:56:04;16.60;99.90
14236;DHT22;7202;50.718;7.072;2023-07-30T06:58:33;16.60;99.90
14236;DHT22;7202;50.718;7.072;2023-07-30T07:01:03;16.60;99.90
14236;DHT22;7202;50.718;7.072;2023-07-30T07:03:32;16.60;99.90
14236;DHT22;7202;50.718;7.072;2023-07-30T07:06:02;16.50;99.90
14236;DHT22;7202;50.718;7.072;2023-07-30T07:08:32;16.50;99.90
14236;DHT22;7202;50.718;7.072;2023-07-30T07:11:00;16.50;99.90
14236;DHT22;7202;50.718;7.072;2023-07-30T07:13:29;16.40;99.90
14236;DHT22;7202;50.718;7.072;2023-07-30T07:15:57;16.40;99.90
14236;DHT22;7202;50.718;7.072;2023-07-30T07:18:26;16.40;99.90
14236;DHT22;7202;50.718;7.072;2023-07-30T07:20:54;16.50;99.90
14236;DHT22;7202;50.718;7.072;2023-07-30T07:23:24;16.40;99.90
14236;DHT22;7202;50.718;7.072;2023-07-30T07:25:53;16.40;99.90
14236;DHT22;7202;50.718;7.072;2023-07-30T07:28:22;16.40;99.90
14236;DHT22;7202;50.718;7.072;2023-07-30T07:30:50;16.40;99.90
14236;DHT22;7202;50.718;7.072;2023-07-30T07:33:19;16.40;99.90
14236;DHT22;7202;50.718;7.072;2023-07-30T07:35:47;16.40;99.90
14236;DHT22;7202;50.718;7.072;2023-07-30T07:38:16;16.40;99.90
14236;DHT22;7202;50.718;7.072;2023-07-30T07:40:46;16.40;99.90
14236;DHT22;7202;50.718;7.072;2023-07-30T07:43:18;16.50;99.90
14236;DHT22;7202;50.718;7.072;2023-07-30T07:45:46;16.50;99.90
14236;DHT22;7202;50.718;7.072;2023-07-30T07:48:15;16.50;99.90
14236;DHT22;7202;50.718;7.072;2023-07-30T07:50:44;16.50;99.90
14236;DHT22;7202;50.718;7.072;2023-07-30T07:53:13;16.60;99.90
14236;DHT22;7202;50.718;7.072;2023-07-30T07:55:41;16.60;99.90
14236;DHT22;7202;50.718;7.072;2023-07-30T07:58:11;16.60;99.90
14236;DHT22;7202;50.718;7.072;2023-07-30T08:00:40;16.70;99.90
14236;DHT22;7202;50.718;7.072;2023-07-30T08:03:08;16.70;99.90
14236;DHT22;7202;50.718;7.072;2023-07-30T08:05:37;16.70;99.90
14236;DHT22;7202;50.718;7.072;2023-07-30T08:08:06;16.80;99.90
14236;DHT22;7202;50.718;7.072;2023-07-30T08:10:38;17.70;99.90
14236;DHT22;7202;50.718;7.072;2023-07-30T08:13:08;16.90;99.90
14236;DHT22;7202;50.718;7.072;2023-07-30T08:15:38;16.90;99.90
14236;DHT22;7202;50.718;7.072;2023-07-30T08:18:06;16.90;99.90
14236;DHT22;7202;50.718;7.072;2023-07-30T08:20:35;16.90;99.90
14236;DHT22;7202;50.718;7.072;2023-07-30T08:23:04;17.00;99.90
14236;DHT22;7202;50.718;7.072;2023-07-30T08:25:33;17.10;99.90
14236;DHT22;7202;50.718;7.072;2023-07-30T08:28:02;17.10;99.90
14236;DHT22;7202;50.718;7.072;2023-07-30T08:30:30;17.10;99.90
14236;DHT22;7202;50.718;7.072;2023-07-30T08:33:00;17.20;99.90
14236;DHT22;7202;50.718;7.072;2023-07-30T08:35:29;17.30;99.90
14236;DHT22;7202;50.718;7.072;2023-07-30T08:37:58;17.30;99.90
14236;DHT22;7202;50.718;7.072;2023-07-30T08:40:26;17.40;99.90
14236;DHT22;7202;50.718;7.072;2023-07-30T08:42:55;17.50;99.90
14236;DHT22;7202;50.718;7.072;2023-07-30T08:45:24;17.60;99.90
14236;DHT22;7202;50.718;7.072;2023-07-30T08:47:52;17.60;99.90
14236;DHT22;7202;50.718;7.072;2023-07-30T08:50:23;17.60;99.90
14236;DHT22;7202;50.718;7.072;2023-07-30T08:52:51;17.60;99.90
14236;DHT22;7202;50.718;7.072;2023-07-30T08:55:21;17.60;99.90
14236;DHT22;7202;50.718;7.072;2023-07-30T08:57:51;17.60;99.90
14236;DHT22;7202;50.718;7.072;2023-07-30T09:00:22;17.60;99.90
14236;DHT22;7202;50.718;7.072;2023-07-30T09:02:54;17.50;99.90
14236;DHT22;7202;50.718;7.072;2023-07-30T09:05:26;17.60;99.90
14236;DHT22;7202;50.718;7.072;2023-07-30T09:07:56;17.70;99.90
14236;DHT22;7202;50.718;7.072;2023-07-30T09:10:26;17.70;99.90
14236;DHT22;7202;50.718;7.072;2023-07-30T09:12:56;17.80;99.90
14236;DHT22;7202;50.718;7.072;2023-07-30T09:15:30;17.80;99.90
14236;DHT22;7202;50.718;7.072;2023-07-30T09:18:00;17.90;99.90
14236;DHT22;7202;50.718;7.072;2023-07-30T09:20:36;18.00;99.90
14236;DHT22;7202;50.718;7.072;2023-07-30T09:23:06;18.00;99.90
14236;DHT22;7202;50.718;7.072;2023-07-30T09:25:36;18.10;99.90
14236;DHT22;7202;50.718;7.072;2023-07-30T09:28:05;18.10;99.90
14236;DHT22;7202;50.718;7.072;2023-07-30T09:30:34;18.20;99.90
14236;DHT22;7202;50.718;7.072;2023-07-30T09:33:03;18.30;99.90
14236;DHT22;7202;50.718;7.072;2023-07-30T09:35:34;18.30;99.90
14236;DHT22;7202;50.718;7.072;2023-07-30T09:38:03;18.30;99.90
14236;DHT22;7202;50.718;7.072;2023-07-30T09:40:33;18.50;99.90
14236;DHT22;7202;50.718;7.072;2023-07-30T09:43:03;18.60;99.90
14236;DHT22;7202;50.718;7.072;2023-07-30T09:45:34;18.70;99.90
14236;DHT22;7202;50.718;7.072;2023-07-30T09:48:04;18.80;99.90
14236;DHT22;7202;50.718;7.072;2023-07-30T09:50:36;18.80;99.90
14236;DHT22;7202;50.718;7.072;2023-07-30T09:53:05;18.80;99.90
14236;DHT22;7202;50.718;7.072;2023-07-30T09:55:33;18.90;99.90
14236;DHT22;7202;50.718;7.072;2023-07-30T09:58:02;18.90;99.90
14236;DHT22;7202;50.718;7.072;2023-07-30T10:00:31;19.00;99.90
14236;DHT22;7202;50.718;7.072;2023-07-30T10:03:01;19.10;99.90
14236;DHT22;7202;50.718;7.072;2023-07-30T10:05:34;19.20;99.90
14236;DHT22;7202;50.718;7.072;2023-07-30T10:08:07;19.30;99.90
14236;DHT22;7202;50.718;7.072;2023-07-30T10:10:37;19.40;99.90
14236;DHT22;7202;50.718;7.072;2023-07-30T10:13:07;19.50;99.90
14236;DHT22;7202;50.718;7.072;2023-07-30T10:15:38;19.60;99.90
14236;DHT22;7202;50.718;7.072;2023-07-30T10:18:06;19.70;99.90
14236;DHT22;7202;50.718;7.072;2023-07-30T10:20:38;19.80;99.90
14236;DHT22;7202;50.718;7.072;2023-07-30T10:23:07;19.80;99.90
14236;DHT22;7202;50.718;7.072;2023-07-30T10:25:46;19.90;99.90
14236;DHT22;7202;50.718;7.072;2023-07-30T10:28:31;20.00;99.90
14236;DHT22;7202;50.718;7.072;2023-07-30T10:31:01;20.00;99.90
14236;DHT22;7202;50.718;7.072;2023-07-30T10:33:49;20.00;99.90
14236;DHT22;7202;50.718;7.072;2023-07-30T10:36:30;20.00;99.90
14236;DHT22;7202;50.718;7.072;2023-07-30T10:39:11;20.00;99.90
14236;DHT22;7202;50.718;7.072;2023-07-30T10:41:39;19.90;99.90
14236;DHT22;7202;50.718;7.072;2023-07-30T10:44:18;19.80;99.90
14236;DHT22;7202;50.718;7.072;2023-07-30T10:46:47;19.70;99.90
14236;DHT22;7202;50.718;7.072;2023-07-30T10:49:16;19.70;99.90
14236;DHT22;7202;50.718;7.072;2023-07-30T10:51:46;19.70;99.90
14236;DHT22;7202;50.718;7.072;2023-07-30T10:54:15;19.70;99.90
14236;DHT22;7202;50.718;7.072;2023-07-30T10:56:44;19.70;99.90
14236;DHT22;7202;50.718;7.072;2023-07-30T10:59:14;19.80;99.90
14236;DHT22;7202;50.718;7.072;2023-07-30T11:01:44;19.90;99.90
14236;DHT22;7202;50.718;7.072;2023-07-30T11:04:15;20.10;99.90
14236;DHT22;7202;50.718;7.072;2023-07-30T11:06:47;20.20;99.90
14236;DHT22;7202;50.718;7.072;2023-07-30T11:09:20;20.40;99.90
14236;DHT22;7202;50.718;7.072;2023-07-30T11:11:50;20.50;99.90
14236;DHT22;7202;50.718;7.072;2023-07-30T11:14:20;20.60;99.90
14236;DHT22;7202;50.718;7.072;2023-07-30T11:16:49;20.70;99.90
14236;DHT22;7202;50.718;7.072;2023-07-30T11:19:19;20.70;99.90
14236;DHT22;7202;50.718;7.072;2023-07-30T11:21:50;20.60;99.90
14236;DHT22;7202;50.718;7.072;2023-07-30T11:24:21;20.50;99.90
14236;DHT22;7202;50.718;7.072;2023-07-30T11:26:58;20.60;99.90
14236;DHT22;7202;50.718;7.072;2023-07-30T11:29:27;20.70;99.90
14236;DHT22;7202;50.718;7.072;2023-07-30T11:31:57;20.80;99.90
14236;DHT22;7202;50.718;7.072;2023-07-30T11:34:26;21.00;99.90
14236;DHT22;7202;50.718;7.072;2023-07-30T11:36:57;21.00;99.90
14236;DHT22;7202;50.718;7.072;2023-07-30T11:39:26;21.00;99.90
14236;DHT22;7202;50.718;7.072;2023-07-30T11:41:56;20.90;99.90
14236;DHT22;7202;50.718;7.072;2023-07-30T11:44:31;20.90;99.90
14236;DHT22;7202;50.718;7.072;2023-07-30T11:47:00;20.90;99.90
14236;DHT22;7202;50.718;7.072;2023-07-30T11:49:31;20.90;99.90
14236;DHT22;7202;50.718;7.072;2023-07-30T11:52:08;20.90;99.90
14236;DHT22;7202;50.718;7.072;2023-07-30T11:54:37;20.90;99.90
14236;DHT22;7202;50.718;7.072;2023-07-30T11:57:06;20.80;99.90
14236;DHT22;7202;50.718;7.072;2023-07-30T11:59:36;20.80;99.90
14236;DHT22;7202;50.718;7.072;2023-07-30T12:02:06;20.80;99.90
14236;DHT22;7202;50.718;7.072;2023-07-30T12:04:43;20.90;99.90
14236;DHT22;7202;50.718;7.072;2023-07-30T12:07:24;20.90;99.90
14236;DHT22;7202;50.718;7.072;2023-07-30T12:09:53;20.90;99.90
14236;DHT22;7202;50.718;7.072;2023-07-30T12:12:25;20.90;99.90
14236;DHT22;7202;50.718;7.072;2023-07-30T12:14:54;21.00;99.90
14236;DHT22;7202;50.718;7.072;2023-07-30T12:17:23;21.10;99.90
14236;DHT22;7202;50.718;7.072;2023-07-30T12:19:51;21.10;99.90
14236;DHT22;7202;50.718;7.072;2023-07-30T12:22:20;21.20;99.90
14236;DHT22;7202;50.718;7.072;2023-07-30T12:24:50;21.30;99.90
14236;DHT22;7202;50.718;7.072;2023-07-30T12:27:18;21.40;99.90
14236;DHT22;7202;50.718;7.072;2023-07-30T12:29:47;21.40;99.90
14236;DHT22;7202;50.718;7.072;2023-07-30T12:32:16;21.40;99.90
14236;DHT22;7202;50.718;7.072;2023-07-30T12:34:45;21.30;99.90
14236;DHT22;7202;50.718;7.072;2023-07-30T12:37:13;21.20;99.90
14236;DHT22;7202;50.718;7.072;2023-07-30T12:39:42;21.10;99.90
14236;DHT22;7202;50.718;7.072;2023-07-30T12:42:12;21.10;99.90
14236;DHT22;7202;50.718;7.072;2023-07-30T12:44:41;21.10;99.90
14236;DHT22;7202;50.718;7.072;2023-07-30T12:47:10;21.10;99.90
14236;DHT22;7202;50.718;7.072;2023-07-30T12:49:39;21.20;99.90
14236;DHT22;7202;50.718;7.072;2023-07-30T12:52:07;21.30;99.90
14236;DHT22;7202;50.718;7.072;2023-07-30T12:54:36;21.50;99.90
14236;DHT22;7202;50.718;7.072;2023-07-30T12:57:06;21.60;99.90
14236;DHT22;7202;50.718;7.072;2023-07-30T12:59:36;21.70;99.90
14236;DHT22;7202;50.718;7.072;2023-07-30T13:02:05;21.80;99.90
14236;DHT22;7202;50.718;7.072;2023-07-30T13:04:34;21.80;99.90
14236;DHT22;7202;50.718;7.072;2023-07-30T13:07:03;21.80;99.90
14236;DHT22;7202;50.718;7.072;2023-07-30T13:09:32;21.80;99.90
14236;DHT22;7202;50.718;7.072;2023-07-30T13:12:00;21.70;99.90
14236;DHT22;7202;50.718;7.072;2023-07-30T13:14:29;21.60;99.90
14236;DHT22;7202;50.718;7.072;2023-07-30T13:16:59;21.60;99.90
14236;DHT22;7202;50.718;7.072;2023-07-30T13:19:28;21.50;99.90
14236;DHT22;7202;50.718;7.072;2023-07-30T13:21:57;21.40;99.90
14236;DHT22;7202;50.718;7.072;2023-07-30T13:24:26;21.40;99.90
14236;DHT22;7202;50.718;7.072;2023-07-30T13:26:57;21.40;99.90
14236;DHT22;7202;50.718;7.072;2023-07-30T13:29:25;21.40;99.90
14236;DHT22;7202;50.718;7.072;2023-07-30T13:31:54;21.50;99.90
14236;DHT22;7202;50.718;7.072;2023-07-30T13:34:24;21.50;99.90
14236;DHT22;7202;50.718;7.072;2023-07-30T13:36:52;21.50;99.90
14236;DHT22;7202;50.718;7.072;2023-07-30T13:39:21;21.50;99.90
14236;DHT22;7202;50.718;7.072;2023-07-30T13:41:49;21.50;99.90
14236;DHT22;7202;50.718;7.072;2023-07-30T13:44:19;21.60;99.90
14236;DHT22;7202;50.718;7.072;2023-07-30T13:46:47;21.60;99.90
14236;DHT22;7202;50.718;7.072;2023-07-30T13:49:17;21.60;99.90
14236;DHT22;7202;50.718;7.072;2023-07-30T13:51:47;21.70;99.90
14236;DHT22;7202;50.718;7.072;2023-07-30T13:54:16;21.80;99.90
14236;DHT22;7202;50.718;7.072;2023-07-30T13:56:44;21.90;99.90
14236;DHT22;7202;50.718;7.072;2023-07-30T13:59:13;21.80;99.90
14236;DHT22;7202;50.718;7.072;2023-07-30T14:01:41;21.90;99.90
14236;DHT22;7202;50.718;7.072;2023-07-30T14:04:10;22.00;99.90
14236;DHT22;7202;50.718;7.072;2023-07-30T14:06:39;22.10;99.90
14236;DHT22;7202;50.718;7.072;2023-07-30T14:09:09;22.20;99.90
14236;DHT22;7202;50.718;7.072;2023-07-30T14:11:37;22.30;99.90
14236;DHT22;7202;50.718;7.072;2023-07-30T14:14:08;22.40;99.90
14236;DHT22;7202;50.718;7.072;2023-07-30T14:16:37;22.50;99.90
14236;DHT22;7202;50.718;7.072;2023-07-30T14:19:05;22.60;99.90
14236;DHT22;7202;50.718;7.072;2023-07-30T14:21:34;22.60;99.90
14236;DHT22;7202;50.718;7.072;2023-07-30T14:24:03;22.60;99.90
14236;DHT22;7202;50.718;7.072;2023-07-30T14:26:33;22.60;99.90
14236;DHT22;7202;50.718;7.072;2023-07-30T14:29:02;22.60;99.90
14236;DHT22;7202;50.718;7.072;2023-07-30T14:31:30;22.60;99.90
14236;DHT22;7202;50.718;7.072;2023-07-30T14:33:59;22.70;99.90
14236;DHT22;7202;50.718;7.072;2023-07-30T14:36:27;22.70;99.90
14236;DHT22;7202;50.718;7.072;2023-07-30T14:38:56;22.70;99.90
14236;DHT22;7202;50.718;7.072;2023-07-30T14:41:25;22.70;99.90
14236;DHT22;7202;50.718;7.072;2023-07-30T14:43:55;22.60;99.90
14236;DHT22;7202;50.718;7.072;2023-07-30T14:46:23;22.70;99.90
14236;DHT22;7202;50.718;7.072;2023-07-30T14:48:52;22.70;99.90
14236;DHT22;7202;50.718;7.072;2023-07-30T14:51:20;22.70;99.90
14236;DHT22;7202;50.718;7.072;2023-07-30T14:53:49;22.80;99.90
14236;DHT22;7202;50.718;7.072;2023-07-30T14:56:18;22.90;99.90
14236;DHT22;7202;50.718;7.072;2023-07-30T14:58:47;23.00;99.90
14236;DHT22;7202;50.718;7.072;2023-07-30T15:01:17;23.10;99.90
14236;DHT22;7202;50.718;7.072;2023-07-30T15:03:45;23.20;99.90
14236;DHT22;7202;50.718;7.072;2023-07-30T15:06:14;23.20;99.90
14236;DHT22;7202;50.718;7.072;2023-07-30T15:08:43;23.20;99.90
14236;DHT22;7202;50.718;7.072;2023-07-30T15:11:11;23.20;99.90
14236;DHT22;7202;50.718;7.072;2023-07-30T15:13:41;23.10;99.90
14236;DHT22;7202;50.718;7.072;2023-07-30T15:16:09;23.00;99.90
14236;DHT22;7202;50.718;7.072;2023-07-30T15:18:41;23.00;99.90
14236;DHT22;7202;50.718;7.072;2023-07-30T15:21:10;22.90;99.90
14236;DHT22;7202;50.718;7.072;2023-07-30T15:23:40;22.90;99.90
14236;DHT22;7202;50.718;7.072;2023-07-30T15:26:08;22.80;99.90
14236;DHT22;7202;50.718;7.072;2023-07-30T15:28:37;22.80;99.90
14236;DHT22;7202;50.718;7.072;2023-07-30T15:31:05;22.80;99.90
14236;DHT22;7202;50.718;7.072;2023-07-30T15:33:34;22.80;99.90
14236;DHT22;7202;50.718;7.072;2023-07-30T15:36:05;22.70;99.90
14236;DHT22;7202;50.718;7.072;2023-07-30T15:38:34;22.70;99.90
14236;DHT22;7202;50.718;7.072;2023-07-30T15:41:03;22.70;99.90
14236;DHT22;7202;50.718;7.072;2023-07-30T15:43:31;22.70;99.90
14236;DHT22;7202;50.718;7.072;2023-07-30T15:46:00;22.70;99.90
14236;DHT22;7202;50.718;7.072;2023-07-30T15:48:29;22.80;99.90
14236;DHT22;7202;50.718;7.072;2023-07-30T15:51:00;22.80;99.90
14236;DHT22;7202;50.718;7.072;2023-07-30T15:53:31;22.90;99.90
14236;DHT22;7202;50.718;7.072;2023-07-30T15:56:00;22.80;99.90
14236;DHT22;7202;50.718;7.072;2023-07-30T15:58:30;22.80;99.90